createdAt,value
2022-08-21T00:01:33.533Z,4.72
2022-08-21T00:03:15.947Z,4.45
2022-08-21T00:04:58.459Z,4.85
2022-08-21T00:06:40.707Z,4.57
2022-08-21T00:08:22.376Z,4.70
2022-08-21T00:10:05.183Z,4.30
2022-08-21T00:11:48.633Z,4.15
2022-08-21T00:13:32.808Z,4.60
2022-08-21T00:15:17.463Z,5.03
2022-08-21T00:17:00.228Z,4.47
2022-08-21T00:18:42.651Z,4.32
2022-08-21T00:20:26.769Z,4.93
2022-08-21T00:22:08.742Z,4.65
2022-08-21T00:23:51.044Z,4.60
2022-08-21T00:25:33.512Z,4.43
2022-08-21T00:27:15.478Z,4.90
2022-08-21T00:28:59.280Z,4.63
2022-08-21T00:30:43.474Z,4.47
2022-08-21T00:32:26.708Z,5.65
2022-08-21T00:34:09.968Z,4.93
2022-08-21T00:35:52.266Z,4.38
2022-08-21T00:37:35.395Z,4.18
2022-08-21T00:39:17.730Z,4.75
2022-08-21T00:41:02.776Z,4.28
2022-08-21T00:43:05.929Z,4.57
2022-08-21T00:44:51.376Z,3.85
2022-08-21T00:46:33.382Z,4.57
2022-08-21T00:48:15.809Z,4.25
2022-08-21T00:49:57.725Z,4.57
2022-08-21T00:51:43.280Z,4.50
2022-08-21T00:53:25.784Z,4.90
2022-08-21T00:55:10.076Z,4.65
2022-08-21T00:56:55.274Z,4.70
2022-08-21T00:58:38.577Z,4.80
2022-08-21T01:00:27.583Z,5.40
2022-08-21T01:02:09.916Z,5.15
2022-08-21T01:03:52.330Z,5.53
2022-08-21T01:05:35.404Z,5.45
2022-08-21T01:07:18.035Z,5.28
2022-08-21T01:09:02.002Z,5.70
2022-08-21T01:10:44.513Z,5.53
2022-08-21T01:12:27.567Z,6.43
2022-08-21T01:14:11.221Z,5.35
2022-08-21T01:15:56.633Z,4.70
2022-08-21T01:17:39.104Z,4.72
2022-08-21T01:19:21.693Z,5.15
2022-08-21T01:21:08.411Z,5.25
2022-08-21T01:22:51.803Z,5.13
2022-08-21T01:24:33.914Z,5.40
2022-08-21T01:26:18.184Z,5.13
2022-08-21T01:28:04.720Z,5.55
2022-08-21T01:29:51.051Z,5.60
2022-08-21T01:31:33.936Z,5.28
2022-08-21T01:33:16.306Z,5.40
2022-08-21T01:34:58.129Z,5.53
2022-08-21T01:36:42.155Z,5.20
2022-08-21T01:38:25.486Z,5.22
2022-08-21T01:40:11.907Z,5.05
2022-08-21T01:41:54.056Z,5.45
2022-08-21T01:43:39.402Z,4.90
2022-08-21T01:45:22.534Z,5.38
2022-08-21T01:47:07.347Z,4.57
2022-08-21T01:48:49.992Z,4.88
2022-08-21T01:50:31.339Z,4.45
2022-08-21T01:52:14.819Z,4.43
2022-08-21T01:53:56.910Z,4.60
2022-08-21T01:55:39.298Z,4.10
2022-08-21T01:57:21.341Z,4.60
2022-08-21T01:59:03.508Z,4.70
2022-08-21T02:00:45.723Z,3.88
2022-08-21T02:02:27.995Z,4.03
2022-08-21T02:04:11.197Z,3.97
2022-08-21T02:05:53.459Z,3.88
2022-08-21T02:07:40.412Z,3.80
2022-08-21T02:09:23.608Z,2.67
2022-08-21T02:11:06.757Z,2.72
2022-08-21T02:12:49.196Z,2.90
2022-08-21T02:14:32.942Z,3.28
2022-08-21T02:16:19.182Z,3.40
2022-08-21T02:18:03.525Z,3.05
2022-08-21T02:19:45.685Z,2.85
2022-08-21T02:21:27.883Z,3.47
2022-08-21T02:23:13.273Z,3.28
2022-08-21T02:24:55.488Z,2.83
2022-08-21T02:26:37.860Z,3.28
2022-08-21T02:28:20.072Z,2.50
2022-08-21T02:30:02.567Z,3.15
2022-08-21T02:31:44.445Z,2.67
2022-08-21T02:33:28.025Z,2.75
2022-08-21T02:35:11.316Z,2.55
2022-08-21T02:36:59.465Z,3.40
2022-08-21T02:38:44.119Z,2.80
2022-08-21T02:40:27.736Z,2.60
2022-08-21T02:42:09.907Z,2.88
2022-08-21T02:43:52.450Z,2.90
2022-08-21T02:45:35.286Z,3.40
2022-08-21T02:47:17.531Z,2.80
2022-08-21T02:48:59.906Z,3.03
2022-08-21T02:50:45.913Z,3.08
2022-08-21T02:52:28.104Z,3.10
2022-08-21T02:54:11.614Z,3.03
2022-08-21T02:55:54.396Z,3.30
2022-08-21T02:57:36.868Z,2.88
2022-08-21T02:59:18.953Z,2.90
2022-08-21T03:01:01.022Z,2.90
2022-08-21T03:02:42.921Z,3.30
2022-08-21T03:04:24.852Z,2.97
2022-08-21T03:06:09.109Z,2.72
2022-08-21T03:07:51.127Z,2.50
2022-08-21T03:09:34.614Z,2.58
2022-08-21T03:11:17.894Z,2.90
2022-08-21T03:13:00.222Z,2.53
2022-08-21T03:14:42.287Z,2.58
2022-08-21T03:16:24.738Z,2.67
2022-08-21T03:18:07.830Z,2.70
2022-08-21T03:19:50.007Z,3.08
2022-08-21T03:21:34.941Z,2.75
2022-08-21T03:23:18.615Z,2.47
2022-08-21T03:25:06.352Z,2.65
2022-08-21T03:26:49.527Z,2.60
2022-08-21T03:28:32.292Z,3.00
2022-08-21T03:30:14.988Z,2.97
2022-08-21T03:31:57.365Z,2.30
2022-08-21T03:33:39.618Z,2.33
2022-08-21T03:35:21.616Z,2.58
2022-08-21T03:37:03.566Z,2.00
2022-08-21T03:38:46.367Z,2.35
2022-08-21T03:40:29.959Z,2.58
2022-08-21T03:42:12.293Z,2.75
2022-08-21T03:43:54.554Z,2.22
2022-08-21T03:45:36.422Z,2.25
2022-08-21T03:47:18.711Z,2.83
2022-08-21T03:49:00.691Z,2.35
2022-08-21T03:50:45.831Z,2.45
2022-08-21T03:52:27.801Z,2.80
2022-08-21T03:54:09.744Z,2.55
2022-08-21T03:55:54.508Z,2.25
2022-08-21T03:57:36.463Z,2.38
2022-08-21T03:59:18.932Z,2.70
2022-08-21T04:01:02.497Z,2.45
2022-08-21T04:02:44.735Z,2.17
2022-08-21T04:04:27.403Z,2.58
2022-08-21T04:06:10.179Z,2.05
2022-08-21T04:07:52.464Z,2.90
2022-08-21T04:09:34.765Z,2.30
2022-08-21T04:11:18.264Z,2.40
2022-08-21T04:13:01.027Z,2.10
2022-08-21T04:14:43.757Z,2.45
2022-08-21T04:16:25.994Z,2.55
2022-08-21T04:18:09.431Z,2.25
2022-08-21T04:19:53.794Z,2.20
2022-08-21T04:21:36.868Z,2.38
2022-08-21T04:23:23.717Z,2.35
2022-08-21T04:25:08.227Z,2.40
2022-08-21T04:26:51.695Z,2.63
2022-08-21T04:28:34.435Z,2.03
2022-08-21T04:30:17.663Z,2.10
2022-08-21T04:32:00.271Z,2.50
2022-08-21T04:33:42.198Z,1.95
2022-08-21T04:35:25.859Z,2.22
2022-08-21T04:37:08.112Z,1.95
2022-08-21T04:38:50.284Z,2.35
2022-08-21T04:40:32.481Z,2.22
2022-08-21T04:42:15.952Z,2.20
2022-08-21T04:43:58.126Z,2.13
2022-08-21T04:45:43.378Z,2.05
2022-08-21T04:47:41.948Z,2.42
2022-08-21T04:49:27.944Z,2.03
2022-08-21T04:51:13.377Z,2.08
2022-08-21T04:52:54.795Z,2.40
2022-08-21T04:54:37.047Z,2.20
2022-08-21T04:56:24.329Z,1.75
2022-08-21T04:58:08.527Z,1.83
2022-08-21T04:59:54.019Z,2.00
2022-08-21T05:01:38.792Z,2.03
2022-08-21T05:03:22.433Z,1.67
2022-08-21T05:05:04.824Z,2.05
2022-08-21T05:06:49.368Z,2.05
2022-08-21T05:08:31.647Z,2.22
2022-08-21T05:10:15.002Z,1.60
2022-08-21T05:11:57.518Z,2.20
2022-08-21T05:13:41.642Z,2.38
2022-08-21T05:15:23.772Z,2.10
2022-08-21T05:17:06.227Z,1.83
2022-08-21T05:18:48.492Z,1.63
2022-08-21T05:20:30.650Z,1.70
2022-08-21T05:22:12.945Z,2.00
2022-08-21T05:23:55.205Z,2.13
2022-08-21T05:25:38.210Z,2.13
2022-08-21T05:27:21.010Z,1.75
2022-08-21T05:29:10.617Z,2.05
2022-08-21T05:30:55.077Z,1.85
2022-08-21T05:32:37.637Z,2.20
2022-08-21T05:34:22.470Z,2.47
2022-08-21T05:36:04.827Z,2.38
2022-08-21T05:37:46.984Z,2.28
2022-08-21T05:39:29.218Z,2.40
2022-08-21T05:41:31.481Z,2.40
2022-08-21T05:43:16.968Z,2.10
2022-08-21T05:45:00.752Z,2.60
2022-08-21T05:46:42.766Z,2.03
2022-08-21T05:48:26.803Z,2.20
2022-08-21T05:50:09.586Z,2.15
2022-08-21T05:51:51.872Z,2.17
2022-08-21T05:53:34.169Z,1.73
2022-08-21T05:55:16.280Z,1.65
2022-08-21T05:56:58.987Z,1.88
2022-08-21T05:58:41.468Z,1.92
2022-08-21T06:00:25.199Z,1.85
2022-08-21T06:02:08.889Z,1.60
2022-08-21T06:03:50.864Z,1.70
2022-08-21T06:05:37.168Z,1.70
2022-08-21T06:07:19.705Z,1.83
2022-08-21T06:09:01.929Z,1.80
2022-08-21T06:10:44.732Z,1.85
2022-08-21T06:12:27.301Z,1.75
2022-08-21T06:14:09.242Z,1.60
2022-08-21T06:16:02.091Z,2.08
2022-08-21T06:17:45.236Z,2.20
2022-08-21T06:19:27.223Z,1.92
2022-08-21T06:21:09.793Z,1.90
2022-08-21T06:22:52.125Z,1.67
2022-08-21T06:24:34.425Z,1.77
2022-08-21T06:26:16.878Z,1.60
2022-08-21T06:28:04.266Z,1.50
2022-08-21T06:29:47.021Z,1.67
2022-08-21T06:31:31.290Z,1.58
2022-08-21T06:33:13.189Z,1.70
2022-08-21T06:34:57.289Z,1.95
2022-08-21T06:36:39.863Z,1.50
2022-08-21T06:38:21.784Z,1.50
2022-08-21T06:40:05.327Z,1.30
2022-08-21T06:41:47.958Z,1.63
2022-08-21T06:43:39.707Z,1.60
2022-08-21T06:45:22.547Z,1.48
2022-08-21T06:47:06.492Z,1.83
2022-08-21T06:48:48.853Z,1.58
2022-08-21T06:50:31.327Z,1.80
2022-08-21T06:52:14.528Z,1.70
2022-08-21T06:53:56.793Z,1.67
2022-08-21T06:55:43.004Z,1.50
2022-08-21T06:57:26.597Z,1.67
2022-08-21T06:59:08.498Z,1.85
2022-08-21T07:00:52.202Z,1.50
2022-08-21T07:02:35.608Z,1.63
2022-08-21T07:04:23.860Z,1.55
2022-08-21T07:06:07.229Z,1.70
2022-08-21T07:07:49.684Z,1.60
2022-08-21T07:09:31.874Z,1.33
2022-08-21T07:11:16.822Z,1.88
2022-08-21T07:13:00.513Z,1.75
2022-08-21T07:14:43.841Z,1.50
2022-08-21T07:16:25.985Z,1.75
2022-08-21T07:18:09.794Z,1.27
2022-08-21T07:19:52.530Z,1.30
2022-08-21T07:21:34.654Z,1.23
2022-08-21T07:23:23.600Z,1.45
2022-08-21T07:25:06.823Z,1.13
2022-08-21T07:26:49.003Z,1.52
2022-08-21T07:28:31.889Z,1.40
2022-08-21T07:30:14.360Z,1.40
2022-08-21T07:31:56.522Z,1.40
2022-08-21T07:33:40.092Z,1.50
2022-08-21T07:35:22.560Z,1.25
2022-08-21T07:37:10.069Z,1.63
2022-08-21T07:38:52.573Z,1.70
2022-08-21T07:40:35.239Z,1.33
2022-08-21T07:42:17.984Z,1.45
2022-08-21T07:44:00.038Z,1.17
2022-08-21T07:45:42.208Z,1.55
2022-08-21T07:47:41.567Z,1.33
2022-08-21T07:49:26.249Z,1.33
2022-08-21T07:51:10.643Z,1.38
2022-08-21T07:52:52.952Z,1.60
2022-08-21T07:54:34.930Z,1.20
2022-08-21T07:56:17.163Z,1.25
2022-08-21T07:57:59.982Z,1.52
2022-08-21T07:59:42.139Z,1.48
2022-08-21T08:01:25.669Z,1.30
2022-08-21T08:03:07.799Z,1.55
2022-08-21T08:04:51.456Z,1.73
2022-08-21T08:06:33.358Z,1.42
2022-08-21T08:08:15.720Z,1.85
2022-08-21T08:09:58.887Z,1.38
2022-08-21T08:11:44.584Z,1.48
2022-08-21T08:13:26.655Z,1.98
2022-08-21T08:15:11.393Z,1.67
2022-08-21T08:16:53.398Z,1.70
2022-08-21T08:18:35.643Z,1.73
2022-08-21T08:20:20.844Z,1.83
2022-08-21T08:22:03.109Z,2.00
2022-08-21T08:23:46.014Z,1.77
2022-08-21T08:25:32.725Z,1.42
2022-08-21T08:27:19.272Z,1.98
2022-08-21T08:29:01.088Z,1.70
2022-08-21T08:30:43.473Z,2.03
2022-08-21T08:32:25.665Z,2.05
2022-08-21T08:34:08.091Z,1.65
2022-08-21T08:35:53.076Z,1.88
2022-08-21T08:37:38.539Z,2.05
2022-08-21T08:39:26.736Z,2.30
2022-08-21T08:41:15.228Z,2.15
2022-08-21T08:42:57.477Z,1.70
2022-08-21T08:44:40.208Z,3.70
2022-08-21T08:46:28.342Z,1.73
2022-08-21T08:48:14.411Z,2.00
2022-08-21T08:50:03.309Z,1.48
2022-08-21T08:51:50.668Z,1.73
2022-08-21T08:53:39.349Z,2.20
2022-08-21T08:55:28.916Z,1.35
2022-08-21T08:57:16.703Z,2.00
2022-08-21T08:59:03.236Z,1.70
2022-08-21T09:00:47.428Z,2.33
2022-08-21T09:02:29.865Z,1.70
2022-08-21T09:04:14.432Z,1.77
2022-08-21T09:06:00.933Z,1.80
2022-08-21T09:07:51.234Z,1.90
2022-08-21T09:09:41.455Z,1.88
2022-08-21T09:11:31.198Z,2.22
2022-08-21T09:13:18.430Z,1.85
2022-08-21T09:15:07.587Z,1.95
2022-08-21T09:16:56.250Z,2.10
2022-08-21T09:18:49.545Z,2.05
2022-08-21T09:20:35.690Z,1.65
2022-08-21T09:22:36.344Z,2.22
2022-08-21T09:24:33.029Z,1.90
2022-08-21T09:26:17.682Z,1.58
2022-08-21T09:27:59.784Z,1.95
2022-08-21T09:29:45.241Z,1.55
2022-08-21T09:31:29.210Z,1.63
2022-08-21T09:33:14.049Z,1.60
2022-08-21T09:35:01.624Z,2.05
2022-08-21T09:36:49.783Z,1.40
2022-08-21T09:38:34.309Z,1.80
2022-08-21T09:40:27.592Z,1.70
2022-08-21T09:42:12.422Z,2.08
2022-08-21T09:43:56.113Z,2.00
2022-08-21T09:45:38.549Z,1.63
2022-08-21T09:47:26.700Z,1.65
2022-08-21T09:49:13.452Z,1.63
2022-08-21T09:51:09.373Z,1.60
2022-08-21T09:52:55.792Z,1.60
2022-08-21T09:54:40.953Z,1.95
2022-08-21T09:56:47.793Z,1.70
2022-08-21T09:58:33.523Z,1.75
2022-08-21T10:00:22.486Z,2.00
2022-08-21T10:02:25.427Z,1.73
2022-08-21T10:04:09.054Z,1.77
2022-08-21T10:05:56.375Z,1.70
2022-08-21T10:07:40.595Z,1.70
2022-08-21T10:09:23.541Z,2.03
2022-08-21T10:11:08.159Z,1.70
2022-08-21T10:12:56.093Z,1.60
2022-08-21T10:14:46.951Z,1.60
2022-08-21T10:16:34.149Z,1.65
2022-08-21T10:18:22.972Z,1.83
2022-08-21T10:20:08.530Z,1.50
2022-08-21T10:22:06.975Z,1.67
2022-08-21T10:23:58.452Z,1.90
2022-08-21T10:25:50.514Z,1.70
2022-08-21T10:27:44.928Z,1.85
2022-08-21T10:29:44.732Z,1.73
2022-08-21T10:31:33.125Z,1.40
2022-08-21T10:33:22.612Z,1.55
2022-08-21T10:35:11.593Z,1.13
2022-08-21T10:37:09.991Z,1.50
2022-08-21T10:41:15.220Z,1.02
2022-08-21T10:43:06.518Z,1.15
2022-08-21T10:45:01.734Z,1.00
2022-08-21T10:46:50.196Z,1.30
2022-08-21T10:48:36.231Z,1.00
2022-08-21T10:50:27.458Z,1.50
2022-08-21T10:52:27.912Z,1.20
2022-08-21T10:54:22.817Z,0.70
2022-08-21T10:56:17.348Z,1.40
2022-08-21T10:58:01.303Z,1.05
2022-08-21T10:59:48.963Z,0.80
2022-08-21T11:01:36.590Z,0.73
2022-08-21T11:03:22.572Z,1.13
2022-08-21T11:05:09.701Z,0.85
2022-08-21T11:06:55.974Z,1.15
2022-08-21T11:08:43.484Z,1.30
2022-08-21T11:10:28.061Z,0.65
2022-08-21T11:12:26.266Z,0.90
2022-08-21T11:14:15.627Z,0.85
2022-08-21T11:16:03.064Z,1.00
2022-08-21T11:17:51.885Z,1.02
2022-08-21T11:19:37.683Z,0.75
2022-08-21T11:21:34.081Z,1.05
2022-08-21T11:23:19.424Z,1.00
2022-08-21T11:25:06.229Z,1.40
2022-08-21T11:26:52.116Z,1.10
2022-08-21T11:28:36.999Z,1.20
2022-08-21T11:30:19.179Z,0.85
2022-08-21T11:32:25.827Z,0.88
2022-08-21T11:34:21.815Z,1.30
2022-08-21T11:36:13.032Z,0.77
2022-08-21T11:38:04.521Z,1.00
2022-08-21T11:39:54.852Z,0.98
2022-08-21T11:41:41.010Z,0.77
2022-08-21T11:43:27.127Z,1.02
2022-08-21T11:45:32.720Z,0.88
2022-08-21T11:47:17.963Z,0.85
2022-08-21T11:49:12.228Z,1.42
2022-08-21T11:50:54.693Z,1.17
2022-08-21T11:52:41.766Z,1.05
2022-08-21T11:54:28.843Z,0.90
2022-08-21T11:56:16.657Z,1.02
2022-08-21T11:58:03.512Z,0.93
2022-08-21T11:59:49.958Z,0.95
2022-08-21T12:01:37.048Z,0.80
2022-08-21T12:03:26.808Z,1.15
2022-08-21T12:05:14.118Z,1.40
2022-08-21T12:06:56.065Z,0.90
2022-08-21T12:08:39.969Z,0.82
2022-08-21T12:10:22.128Z,1.10
2022-08-21T12:12:07.173Z,1.17
2022-08-21T12:13:56.666Z,1.10
2022-08-21T12:15:38.906Z,1.35
2022-08-21T12:17:22.427Z,0.93
2022-08-21T12:19:08.794Z,1.10
2022-08-21T12:21:04.503Z,1.70
2022-08-21T12:22:53.454Z,1.00
2022-08-21T12:24:39.503Z,1.05
2022-08-21T12:26:30.502Z,0.88
2022-08-21T12:28:14.261Z,1.17
2022-08-21T12:29:59.108Z,1.33
2022-08-21T12:32:01.292Z,0.82
2022-08-21T12:33:43.378Z,1.13
2022-08-21T12:35:28.360Z,0.82
2022-08-21T12:37:19.308Z,0.90
2022-08-21T12:39:07.180Z,1.00
2022-08-21T12:40:52.987Z,1.13
2022-08-21T12:42:40.977Z,0.77
2022-08-21T12:44:26.151Z,3.97
2022-08-21T12:46:35.022Z,0.95
2022-08-21T12:48:24.230Z,1.23
2022-08-21T12:50:31.511Z,0.90
2022-08-21T12:52:41.186Z,1.30
2022-08-21T12:54:29.015Z,1.20
2022-08-21T12:56:13.348Z,0.90
2022-08-21T12:57:55.565Z,0.82
2022-08-21T12:59:40.534Z,1.45
2022-08-21T13:01:25.804Z,1.33
2022-08-21T13:03:09.446Z,1.40
2022-08-21T13:04:52.760Z,1.00
2022-08-21T13:06:40.453Z,1.40
2022-08-21T13:08:24.672Z,1.50
2022-08-21T13:10:09.020Z,1.15
2022-08-21T13:11:52.419Z,1.33
2022-08-21T13:13:36.071Z,1.33
2022-08-21T13:15:33.295Z,1.20
2022-08-21T13:17:25.853Z,1.45
2022-08-21T13:19:09.600Z,1.30
2022-08-21T13:20:52.083Z,1.40
2022-08-21T13:22:37.834Z,1.40
2022-08-21T13:24:41.743Z,1.70
2022-08-21T13:26:25.215Z,1.75
2022-08-21T13:28:12.463Z,1.67
2022-08-21T13:30:10.745Z,1.38
2022-08-21T13:31:56.136Z,1.25
2022-08-21T13:33:38.671Z,1.45
2022-08-21T13:35:23.867Z,1.50
2022-08-21T13:37:07.963Z,1.38
2022-08-21T13:38:50.208Z,1.42
2022-08-21T13:40:48.082Z,1.23
2022-08-21T13:42:30.137Z,1.50
2022-08-21T13:44:20.755Z,1.45
2022-08-21T13:46:04.513Z,1.20
2022-08-21T13:47:48.633Z,1.77
2022-08-21T13:49:34.001Z,1.52
2022-08-21T13:51:15.911Z,1.35
2022-08-21T13:53:01.600Z,1.63
2022-08-21T13:54:45.288Z,1.40
2022-08-21T13:56:31.517Z,1.52
2022-08-21T13:58:14.204Z,1.30
2022-08-21T14:00:11.122Z,1.75
2022-08-21T14:01:59.933Z,1.38
2022-08-21T14:03:45.466Z,1.60
2022-08-21T14:05:31.063Z,1.73
2022-08-21T14:07:19.556Z,1.30
2022-08-21T14:09:03.762Z,1.67
2022-08-21T14:10:48.086Z,1.55
2022-08-21T14:12:44.982Z,1.20
2022-08-21T14:14:28.494Z,1.20
2022-08-21T14:16:19.287Z,1.20
2022-08-21T14:18:11.643Z,1.55
2022-08-21T14:19:54.013Z,1.83
2022-08-21T14:21:37.890Z,1.38
2022-08-21T14:23:27.274Z,1.48
2022-08-21T14:25:12.722Z,1.75
2022-08-21T14:26:56.833Z,2.22
2022-08-21T14:28:43.671Z,1.40
2022-08-21T14:30:34.115Z,1.50
2022-08-21T14:32:21.640Z,1.40
2022-08-21T14:34:19.486Z,1.60
2022-08-21T14:36:02.930Z,1.30
2022-08-21T14:37:46.017Z,1.52
2022-08-21T14:39:32.067Z,1.30
2022-08-21T14:41:18.775Z,1.60
2022-08-21T14:43:00.902Z,1.85
2022-08-21T14:44:44.819Z,1.40
2022-08-21T14:46:28.337Z,1.80
2022-08-21T14:48:10.482Z,1.33
2022-08-21T14:49:54.781Z,1.30
2022-08-21T14:51:36.851Z,1.30
2022-08-21T14:53:30.295Z,1.60
2022-08-21T14:55:15.017Z,1.40
2022-08-21T14:56:56.227Z,1.50
2022-08-21T14:58:40.796Z,1.13
2022-08-21T15:00:35.428Z,1.30
2022-08-21T15:02:18.306Z,1.85
2022-08-21T15:04:00.423Z,1.73
2022-08-21T15:05:42.584Z,1.63
2022-08-21T15:07:24.850Z,1.60
2022-08-21T15:09:07.159Z,1.27
2022-08-21T15:11:10.498Z,1.60
2022-08-21T15:12:51.272Z,1.48
2022-08-21T15:14:35.797Z,1.73
2022-08-21T15:16:19.259Z,1.65
2022-08-21T15:18:01.515Z,1.73
2022-08-21T15:19:43.776Z,1.48
2022-08-21T15:21:25.961Z,1.73
2022-08-21T15:23:13.028Z,1.70
2022-08-21T15:24:57.056Z,1.55
2022-08-21T15:26:39.189Z,1.75
2022-08-21T15:28:22.149Z,1.40
2022-08-21T15:30:06.518Z,1.50
2022-08-21T15:31:55.542Z,1.70
2022-08-21T15:33:37.750Z,1.50
2022-08-21T15:35:20.185Z,1.80
2022-08-21T15:37:02.151Z,1.70
2022-08-21T15:38:44.871Z,1.45
2022-08-21T15:40:27.013Z,1.60
2022-08-21T15:42:11.242Z,1.80
2022-08-21T15:43:55.759Z,2.00
2022-08-21T15:45:37.987Z,1.90
2022-08-21T15:47:24.558Z,1.48
2022-08-21T15:49:06.861Z,1.85
2022-08-21T15:50:48.995Z,1.70
2022-08-21T15:52:31.344Z,1.70
2022-08-21T15:54:13.584Z,1.52
2022-08-21T15:55:56.346Z,1.92
2022-08-21T15:57:39.695Z,1.90
2022-08-21T15:59:23.827Z,1.63
2022-08-21T16:01:06.135Z,1.92
2022-08-21T16:02:51.016Z,1.45
2022-08-21T16:04:32.961Z,2.03
2022-08-21T16:06:15.076Z,2.00
2022-08-21T16:07:57.274Z,1.73
2022-08-21T16:09:39.457Z,1.60
2022-08-21T16:11:21.679Z,1.27
2022-08-21T16:13:08.456Z,1.77
2022-08-21T16:14:51.335Z,1.77
2022-08-21T16:16:33.948Z,1.80
2022-08-21T16:18:17.557Z,1.50
2022-08-21T16:20:00.180Z,1.58
2022-08-21T16:21:42.463Z,1.65
2022-08-21T16:23:24.418Z,1.65
2022-08-21T16:25:08.013Z,1.83
2022-08-21T16:26:56.155Z,1.55
2022-08-21T16:28:42.632Z,1.60
2022-08-21T16:30:25.196Z,1.63
2022-08-21T16:32:08.898Z,1.65
2022-08-21T16:33:57.249Z,1.45
2022-08-21T16:35:40.248Z,1.50
2022-08-21T16:37:24.411Z,1.42
2022-08-21T16:39:06.838Z,1.67
2022-08-21T16:40:49.163Z,1.40
2022-08-21T16:42:31.392Z,1.63
2022-08-21T16:44:13.563Z,1.63
2022-08-21T16:45:57.286Z,1.48
2022-08-21T16:47:39.508Z,1.35
2022-08-21T16:49:23.171Z,1.92
2022-08-21T16:51:05.748Z,1.65
2022-08-21T16:52:48.449Z,1.50
2022-08-21T16:54:31.091Z,2.08
2022-08-21T16:56:14.955Z,1.45
2022-08-21T16:57:57.842Z,1.80
2022-08-21T16:59:41.064Z,1.50
2022-08-21T17:01:26.795Z,1.75
2022-08-21T17:03:09.059Z,1.52
2022-08-21T17:04:52.364Z,1.50
2022-08-21T17:06:34.433Z,1.60
2022-08-21T17:08:16.266Z,1.90
2022-08-21T17:09:58.360Z,1.60
2022-08-21T17:11:43.213Z,1.80
2022-08-21T17:13:25.959Z,1.38
2022-08-21T17:15:10.588Z,1.50
2022-08-21T17:16:54.882Z,1.27
2022-08-21T17:18:37.089Z,2.25
2022-08-21T17:20:21.510Z,1.85
2022-08-21T17:22:03.567Z,1.88
2022-08-21T17:23:45.658Z,1.42
2022-08-21T17:25:28.326Z,1.40
2022-08-21T17:27:12.781Z,1.95
2022-08-21T17:28:55.167Z,1.50
2022-08-21T17:30:37.951Z,1.85
2022-08-21T17:32:20.836Z,1.58
2022-08-21T17:34:02.886Z,1.65
2022-08-21T17:35:46.725Z,1.80
2022-08-21T17:37:29.535Z,1.60
2022-08-21T17:39:12.931Z,1.48
2022-08-21T17:40:58.415Z,1.50
2022-08-21T17:42:41.586Z,1.23
2022-08-21T17:44:24.167Z,1.33
2022-08-21T17:46:07.091Z,1.45
2022-08-21T17:47:49.286Z,1.65
2022-08-21T17:49:31.544Z,1.38
2022-08-21T17:51:15.074Z,1.48
2022-08-21T17:52:57.581Z,1.55
2022-08-21T17:54:41.063Z,1.50
2022-08-21T17:56:33.554Z,1.55
2022-08-21T17:58:16.608Z,1.48
2022-08-21T17:59:58.952Z,1.80
2022-08-21T18:01:43.612Z,1.90
2022-08-21T18:03:26.045Z,1.65
2022-08-21T18:05:09.987Z,2.20
2022-08-21T18:06:53.387Z,1.60
2022-08-21T18:08:35.693Z,1.77
2022-08-21T18:10:18.076Z,1.48
2022-08-21T18:12:02.096Z,1.67
2022-08-21T18:13:44.165Z,1.63
2022-08-21T18:15:26.102Z,1.75
2022-08-21T18:17:08.939Z,1.63
2022-08-21T18:18:52.754Z,1.50
2022-08-21T18:20:35.357Z,1.50
2022-08-21T18:22:18.775Z,1.70
2022-08-21T18:24:00.811Z,1.70
2022-08-21T18:25:45.621Z,1.70
2022-08-21T18:27:29.705Z,1.52
2022-08-21T18:29:15.360Z,1.77
2022-08-21T18:30:57.436Z,1.70
2022-08-21T18:32:39.606Z,2.15
2022-08-21T18:34:26.874Z,2.00
2022-08-21T18:36:09.224Z,1.88
2022-08-21T18:37:54.434Z,1.80
2022-08-21T18:39:38.139Z,2.38
2022-08-21T18:41:20.444Z,2.17
2022-08-21T18:43:04.033Z,1.48
2022-08-21T18:44:47.985Z,2.47
2022-08-21T18:46:31.594Z,2.17
2022-08-21T18:48:14.870Z,2.30
2022-08-21T18:49:57.914Z,2.53
2022-08-21T18:51:43.515Z,2.70
2022-08-21T18:55:31.067Z,2.35
2022-08-21T18:57:12.980Z,2.53
2022-08-21T18:58:58.185Z,2.15
2022-08-21T19:00:45.760Z,2.60
2022-08-21T19:02:28.846Z,2.47
2022-08-21T19:04:25.258Z,2.38
2022-08-21T19:06:14.514Z,2.35
2022-08-21T19:07:57.149Z,2.08
2022-08-21T19:09:42.902Z,2.60
2022-08-21T19:11:26.580Z,2.30
2022-08-21T19:13:10.309Z,2.92
2022-08-21T19:14:53.033Z,2.22
2022-08-21T19:16:35.497Z,2.95
2022-08-21T19:18:21.414Z,2.63
2022-08-21T19:20:16.731Z,2.55
2022-08-21T19:22:10.860Z,2.90
2022-08-21T19:23:53.749Z,3.80
2022-08-21T19:25:39.715Z,3.45
2022-08-21T19:27:23.927Z,3.42
2022-08-21T19:29:09.442Z,3.08
2022-08-21T19:30:56.626Z,2.75
2022-08-21T19:32:41.048Z,2.92
2022-08-21T19:34:27.687Z,3.00
2022-08-21T19:36:11.203Z,4.32
2022-08-21T19:37:53.399Z,3.00
2022-08-21T19:39:42.363Z,3.63
2022-08-21T19:41:31.857Z,3.53
2022-08-21T19:43:23.231Z,3.00
2022-08-21T19:45:06.747Z,3.20
2022-08-21T19:46:50.345Z,3.40
2022-08-21T19:48:33.586Z,3.53
2022-08-21T19:50:17.780Z,3.90
2022-08-21T19:52:18.371Z,3.13
2022-08-21T19:54:01.255Z,3.22
2022-08-21T19:55:44.774Z,3.13
2022-08-21T19:57:28.368Z,3.10
2022-08-21T19:59:10.832Z,3.60
2022-08-21T20:00:53.239Z,3.72
2022-08-21T20:02:35.741Z,5.65
2022-08-21T20:04:19.247Z,3.72
2022-08-21T20:06:01.659Z,3.97
2022-08-21T20:07:43.833Z,6.15
2022-08-21T20:09:26.210Z,4.63
2022-08-21T20:11:08.720Z,4.35
2022-08-21T20:12:52.544Z,3.25
2022-08-21T20:14:35.274Z,3.72
2022-08-21T20:16:17.614Z,3.47
2022-08-21T20:18:01.692Z,4.13
2022-08-21T20:19:45.841Z,3.45
2022-08-21T20:21:27.791Z,3.67
2022-08-21T20:23:10.780Z,4.22
2022-08-21T20:24:53.276Z,3.97
2022-08-21T20:26:37.568Z,3.92
2022-08-21T20:28:24.950Z,3.50
2022-08-21T20:30:09.898Z,4.05
2022-08-21T20:31:52.133Z,4.07
2022-08-21T20:33:34.355Z,4.03
2022-08-21T20:35:17.598Z,3.83
2022-08-21T20:37:00.817Z,3.78
2022-08-21T20:38:43.193Z,3.60
2022-08-21T20:40:29.198Z,4.18
2022-08-21T20:42:14.637Z,3.53
2022-08-21T20:43:59.448Z,3.85
2022-08-21T20:45:42.172Z,3.45
2022-08-21T20:47:24.502Z,3.33
2022-08-21T20:49:09.171Z,3.50
2022-08-21T20:50:54.282Z,3.35
2022-08-21T20:52:38.861Z,3.85
2022-08-21T20:54:24.704Z,3.53
2022-08-21T20:56:14.208Z,3.67
2022-08-21T20:58:03.029Z,3.67
2022-08-21T21:01:53.544Z,3.85
2022-08-21T21:03:39.232Z,3.78
2022-08-21T21:05:28.361Z,3.55
2022-08-21T21:07:17.256Z,3.83
2022-08-21T21:09:08.261Z,3.80
2022-08-21T21:10:55.625Z,3.47
2022-08-21T21:12:43.018Z,3.72
2022-08-21T21:14:32.084Z,3.55
2022-08-21T21:16:18.524Z,3.80
2022-08-21T21:18:08.239Z,5.28
2022-08-21T21:19:58.561Z,3.70
2022-08-21T21:21:51.315Z,3.92
2022-08-21T21:23:40.523Z,3.85
2022-08-21T21:27:36.360Z,4.13
2022-08-21T21:29:21.596Z,3.67
2022-08-21T21:31:03.844Z,4.00
2022-08-21T21:32:47.889Z,4.10
2022-08-21T21:34:33.607Z,4.13
2022-08-21T21:36:23.993Z,3.97
2022-08-21T21:38:12.828Z,3.60
2022-08-21T21:40:01.121Z,3.95
2022-08-21T21:41:48.298Z,3.78
2022-08-21T21:43:49.140Z,4.55
2022-08-21T21:45:39.183Z,4.45
2022-08-21T21:47:28.349Z,4.60
2022-08-21T21:49:33.206Z,4.05
2022-08-21T21:51:20.451Z,4.72
2022-08-21T21:53:15.250Z,3.90
2022-08-21T21:55:07.381Z,3.85
2022-08-21T21:56:56.939Z,4.07
2022-08-21T21:58:47.354Z,3.97
2022-08-21T22:00:33.789Z,4.38
2022-08-21T22:02:24.001Z,4.18
2022-08-21T22:04:17.142Z,3.78
2022-08-21T22:06:03.818Z,4.25
2022-08-21T22:07:50.414Z,4.03
2022-08-21T22:09:42.813Z,4.25
2022-08-21T22:11:31.743Z,3.88
2022-08-21T22:13:25.236Z,4.18
2022-08-21T22:15:09.243Z,4.22
2022-08-21T22:16:52.719Z,4.10
2022-08-21T22:18:38.314Z,3.88
2022-08-21T22:20:33.662Z,3.80
2022-08-21T22:22:20.714Z,3.85
2022-08-21T22:24:07.602Z,3.63
2022-08-21T22:25:55.916Z,3.28
2022-08-21T22:27:40.883Z,4.10
2022-08-21T22:29:23.170Z,3.53
2022-08-21T22:31:18.392Z,3.95
2022-08-21T22:33:01.381Z,3.63
2022-08-21T22:34:43.557Z,4.25
2022-08-21T22:36:29.504Z,4.20
2022-08-21T22:38:31.515Z,4.18
2022-08-21T22:40:16.790Z,4.00
2022-08-21T22:42:07.330Z,4.05
2022-08-21T22:43:55.467Z,4.18
2022-08-21T22:45:59.142Z,3.20
2022-08-21T22:47:46.019Z,3.60
2022-08-21T22:49:34.010Z,3.53
2022-08-21T22:51:30.127Z,3.78
2022-08-21T22:53:23.308Z,3.75
2022-08-21T22:55:24.623Z,3.78
2022-08-21T22:57:11.486Z,3.60
2022-08-21T22:58:55.418Z,3.22
2022-08-21T23:00:51.380Z,3.63
2022-08-21T23:02:38.735Z,3.47
2022-08-21T23:04:22.073Z,3.38
2022-08-21T23:06:12.599Z,3.63
2022-08-21T23:07:56.903Z,3.25
2022-08-21T23:09:49.767Z,3.65
2022-08-21T23:11:39.817Z,3.90
2022-08-21T23:13:23.092Z,3.30
2022-08-21T23:15:08.267Z,3.38
2022-08-21T23:16:55.237Z,4.05
2022-08-21T23:18:49.330Z,3.45
2022-08-21T23:20:40.102Z,3.85
2022-08-21T23:22:41.006Z,3.33
2022-08-21T23:24:46.727Z,3.45
2022-08-21T23:26:37.446Z,3.83
2022-08-21T23:28:32.643Z,3.70
2022-08-21T23:30:18.781Z,3.55
2022-08-21T23:32:08.622Z,3.72
2022-08-21T23:34:05.910Z,3.88